Terminal Aerodrome Forecast
Issued by NWS Goodland, KS

Home | Current Version | Previous Version | Text Only | Print | Product List | Glossary On
Versions: 1 2 3 4 5 6 7 8 9 10 11 12 13 14 15 16 17 18 19 20 21 22
380
FTUS43 KGLD 310520
TAFGLD
TAF
KGLD 310520Z 3106/0106 VRB04KT P6SM SCT030 BKN060
     FM310800 VRB03KT 5SM BR BKN003
      TEMPO 3110/3112 1/4SM FG VV001
     FM311200 VRB03KT 1/4SM FG VV001
     FM311700 11005KT P6SM SCT020 BKN040
     FM010300 11006KT P6SM BKN015
      TEMPO 0103/0106 BKN005=

USA.gov is the U.S. government's official web portal to all federal, state and local government web resources and services.